Time;durP1;ratioP1;P1;durP2;ratioP2;P2;SDS_P1;SDS_P2;PMS_P1;PMS_P2;Temp;Humidity;BMP_temperature;BMP_pressure;BME280_temperature;BME280_humidity;BME280_pressure;Samples;Min_cycle;Max_cycle;Signal;HPM_P1;HPM_P2
2023/10/04 00:00:18;;;;;;;6.80;0.70;;;;;;;;;;5282510;28;20020;-82
2023/10/04 00:02:53;;;;;;;6.00;0.93;;;;;;;;;;5281526;28;20059;-82
2023/10/04 00:05:25;;;;;;;6.38;0.60;;;;;;;;;;5281969;28;20017;-82
2023/10/04 00:07:56;;;;;;;5.07;0.63;;;;;;;;;;5282476;28;20107;-82
2023/10/04 00:10:28;;;;;;;5.50;0.90;;;;;;;;;;5281941;28;20023;-83
2023/10/04 00:12:59;;;;;;;5.22;0.70;;;;;;;;;;5282207;28;20054;-82
2023/10/04 00:15:31;;;;;;;6.80;1.15;;;;;;;;;;5281665;28;20016;-83
2023/10/04 00:18:04;;;;;;;4.82;0.73;;;;;;;;;;5282338;28;20012;-82
2023/10/04 00:20:35;;;;;;;4.53;0.68;;;;;;;;;;5282147;28;20100;-82
2023/10/04 00:23:07;;;;;;;4.15;0.60;;;;;;;;;;5281535;28;20115;-82
2023/10/04 00:25:38;;;;;;;7.53;0.88;;;;;;;;;;5282161;28;20013;-83
2023/10/04 00:28:10;;;;;;;3.38;0.50;;;;;;;;;;5282040;28;20053;-82
2023/10/04 00:30:42;;;;;;;7.18;0.70;;;;;;;;;;5281469;28;20044;-82
2023/10/04 00:33:15;;;;;;;5.82;0.50;;;;;;;;;;5282014;28;20024;-82
2023/10/04 00:35:46;;;;;;;4.72;0.60;;;;;;;;;;5282001;28;20044;-83
2023/10/04 00:38:19;;;;;;;6.20;0.60;;;;;;;;;;5281720;28;20050;-83
2023/10/04 00:40:51;;;;;;;6.50;0.95;;;;;;;;;;5281638;28;20111;-81
2023/10/04 00:43:22;;;;;;;4.72;0.65;;;;;;;;;;5282248;28;20107;-83
2023/10/04 00:45:54;;;;;;;4.45;0.70;;;;;;;;;;5280831;28;20052;-82
2023/10/04 00:48:31;;;;;;;3.65;0.60;;;;;;;;;;5281949;28;20035;-83
2023/10/04 00:51:02;;;;;;;4.03;0.57;;;;;;;;;;5281128;28;20013;-82
2023/10/04 00:53:34;;;;;;;4.95;0.70;;;;;;;;;;5282059;28;20540;-83
2023/10/04 00:56:07;;;;;;;5.55;0.60;;;;;;;;;;5281679;28;20040;-82
2023/10/04 00:58:39;;;;;;;2.53;0.73;;;;;;;;;;5281307;28;20016;-82
2023/10/04 01:01:10;;;;;;;6.78;0.82;;;;;;;;;;5281641;28;20025;-82
2023/10/04 01:03:41;;;;;;;3.30;0.65;;;;;;;;;;5282004;28;20103;-83
2023/10/04 01:06:13;;;;;;;5.70;0.77;;;;;;;;;;5281131;28;20021;-82
2023/10/04 01:08:47;;;;;;;4.63;0.60;;;;;;;;;;5281490;28;20024;-83
2023/10/04 01:11:20;;;;;;;6.32;0.70;;;;;;;;;;5282063;28;20042;-82
2023/10/04 01:13:56;;;;;;;6.35;0.80;;;;;;;;;;5280558;28;20020;-83
2023/10/04 01:16:28;;;;;;;5.70;0.60;;;;;;;;;;5282891;28;20107;-82
2023/10/04 01:19:15;;;;;;;4.72;0.70;;;;;;;;;;5286684;28;20092;-90
2023/10/04 01:21:46;;;;;;;9.30;0.73;;;;;;;;;;5285573;28;20493;-83
2023/10/04 01:24:19;;;;;;;5.73;0.87;;;;;;;;;;5286188;28;20037;-82
2023/10/04 01:26:51;;;;;;;4.60;0.52;;;;;;;;;;5284633;28;20259;-82
2023/10/04 01:29:22;;;;;;;4.45;0.60;;;;;;;;;;5285827;28;20028;-83
2023/10/04 01:31:54;;;;;;;4.27;0.70;;;;;;;;;;5284936;28;20041;-82
2023/10/04 01:34:26;;;;;;;5.47;0.77;;;;;;;;;;5285039;28;20617;-82
2023/10/04 01:36:58;;;;;;;7.75;0.93;;;;;;;;;;5285490;28;20044;-82
2023/10/04 01:39:30;;;;;;;5.75;0.80;;;;;;;;;;5285442;28;20382;-83
2023/10/04 01:42:01;;;;;;;14.38;0.95;;;;;;;;;;5284604;28;20466;-82
2023/10/04 01:44:32;;;;;;;5.35;0.63;;;;;;;;;;5285243;28;20078;-82
2023/10/04 01:47:04;;;;;;;4.95;0.70;;;;;;;;;;5284665;28;20499;-82
2023/10/04 01:49:36;;;;;;;5.95;0.70;;;;;;;;;;5285460;28;20374;-82
2023/10/04 01:52:08;;;;;;;4.53;0.90;;;;;;;;;;5285197;28;20025;-82
2023/10/04 01:54:39;;;;;;;5.38;0.68;;;;;;;;;;5284372;28;20074;-83
2023/10/04 01:57:10;;;;;;;4.88;0.82;;;;;;;;;;5284843;28;20016;-83
2023/10/04 01:59:41;;;;;;;5.40;0.70;;;;;;;;;;5284854;28;20103;-82
2023/10/04 02:02:14;;;;;;;5.57;0.60;;;;;;;;;;5284063;28;20391;-83
2023/10/04 02:04:52;;;;;;;6.57;1.15;;;;;;;;;;5284633;28;20064;-82
2023/10/04 02:07:23;;;;;;;5.25;0.70;;;;;;;;;;5285273;28;20031;-83
2023/10/04 02:09:55;;;;;;;4.35;0.75;;;;;;;;;;5284104;28;20012;-82
2023/10/04 02:12:26;;;;;;;4.72;0.80;;;;;;;;;;5284881;28;20477;-83
2023/10/04 02:14:57;;;;;;;7.88;0.88;;;;;;;;;;5285124;28;20024;-82
2023/10/04 02:17:29;;;;;;;5.60;0.90;;;;;;;;;;5290268;28;20013;-82
2023/10/04 02:20:00;;;;;;;7.97;0.80;;;;;;;;;;5296320;28;20032;-82
2023/10/04 02:22:32;;;;;;;4.88;0.80;;;;;;;;;;5292744;28;20462;-83
2023/10/04 02:25:06;;;;;;;3.67;0.70;;;;;;;;;;5286107;28;20462;-83
2023/10/04 02:27:37;;;;;;;7.18;0.80;;;;;;;;;;5284895;28;20478;-84
2023/10/04 02:30:13;;;;;;;4.88;0.85;;;;;;;;;;5284033;28;20031;-81
2023/10/04 02:32:44;;;;;;;5.85;0.80;;;;;;;;;;5284559;28;20475;-82
2023/10/04 02:35:27;;;;;;;7.63;1.00;;;;;;;;;;5284659;28;20025;-81
2023/10/04 02:38:09;;;;;;;7.05;0.60;;;;;;;;;;5283404;28;20039;-81
2023/10/04 02:40:41;;;;;;;8.10;1.13;;;;;;;;;;5284319;28;20035;-82
2023/10/04 02:43:15;;;;;;;6.25;0.75;;;;;;;;;;5283449;28;20024;-82
2023/10/04 02:45:47;;;;;;;4.05;0.52;;;;;;;;;;5284098;28;20150;-83
2023/10/04 02:48:23;;;;;;;7.43;1.00;;;;;;;;;;5284275;28;20076;-81
2023/10/04 02:50:54;;;;;;;5.20;0.88;;;;;;;;;;5283340;28;20026;-83
2023/10/04 02:53:27;;;;;;;6.50;0.95;;;;;;;;;;5284185;28;20020;-83
2023/10/04 02:55:58;;;;;;;4.60;0.70;;;;;;;;;;5284012;28;20589;-83
2023/10/04 02:58:30;;;;;;;4.43;0.70;;;;;;;;;;5283170;28;20095;-83
2023/10/04 03:01:01;;;;;;;5.03;0.70;;;;;;;;;;5283661;28;20051;-82
2023/10/04 03:03:33;;;;;;;4.85;0.77;;;;;;;;;;5284063;28;20021;-82
2023/10/04 03:06:04;;;;;;;7.57;1.00;;;;;;;;;;5283103;28;20025;-83
2023/10/04 03:08:35;;;;;;;6.23;0.80;;;;;;;;;;5283899;28;20043;-83
2023/10/04 03:11:07;;;;;;;5.75;1.08;;;;;;;;;;5283486;28;20354;-82
2023/10/04 03:13:38;;;;;;;7.95;0.63;;;;;;;;;;5282732;28;20485;-82
2023/10/04 03:16:10;;;;;;;5.03;0.70;;;;;;;;;;5283849;28;20021;-82
2023/10/04 03:18:41;;;;;;;4.40;0.77;;;;;;;;;;5282837;28;20024;-83
2023/10/04 03:21:20;;;;;;;6.90;1.10;;;;;;;;;;5283627;28;20289;-82
2023/10/04 03:23:54;;;;;;;7.05;1.08;;;;;;;;;;5283309;28;20459;-82
2023/10/04 03:26:25;;;;;;;6.93;0.93;;;;;;;;;;5282795;28;20405;-83
2023/10/04 03:28:56;;;;;;;6.43;0.57;;;;;;;;;;5283399;28;20066;-82
2023/10/04 03:31:27;;;;;;;6.72;0.70;;;;;;;;;;5283057;28;20083;-83
2023/10/04 03:33:59;;;;;;;8.27;0.90;;;;;;;;;;5282406;28;20020;-82
2023/10/04 03:36:34;;;;;;;6.75;0.73;;;;;;;;;;5283023;28;20120;-82
2023/10/04 03:39:09;;;;;;;9.95;1.20;;;;;;;;;;5282893;28;20395;-82
2023/10/04 03:41:42;;;;;;;4.75;0.82;;;;;;;;;;5281646;28;20024;-82
2023/10/04 03:44:13;;;;;;;9.35;1.10;;;;;;;;;;5282928;28;20020;-82
2023/10/04 03:46:44;;;;;;;6.30;0.80;;;;;;;;;;5281863;28;20025;-83
2023/10/04 03:49:19;;;;;;;6.82;0.85;;;;;;;;;;5283201;28;20020;-82
2023/10/04 03:51:52;;;;;;;4.55;0.63;;;;;;;;;;5282752;28;20055;-82
2023/10/04 03:54:27;;;;;;;8.15;0.80;;;;;;;;;;5282573;28;20008;-83
2023/10/04 03:57:06;;;;;;;7.88;1.13;;;;;;;;;;5283076;28;20087;-82
2023/10/04 03:59:37;;;;;;;6.57;0.70;;;;;;;;;;5282923;28;20051;-83
2023/10/04 04:02:11;;;;;;;8.13;1.03;;;;;;;;;;5282332;28;20031;-81
2023/10/04 04:04:42;;;;;;;7.60;1.92;;;;;;;;;;5283093;28;20744;-82
2023/10/04 04:07:14;;;;;;;7.72;1.10;;;;;;;;;;5282667;28;20039;-82
2023/10/04 04:09:46;;;;;;;4.38;0.70;;;;;;;;;;5282044;28;20017;-83
2023/10/04 04:12:17;;;;;;;4.93;0.93;;;;;;;;;;5282961;28;20074;-83
2023/10/04 04:14:48;;;;;;;5.50;0.98;;;;;;;;;;5281283;28;20024;-83
2023/10/04 04:17:22;;;;;;;8.13;1.15;;;;;;;;;;5282796;28;20024;-83
2023/10/04 04:19:53;;;;;;;6.55;1.00;;;;;;;;;;5282214;28;20454;-82
2023/10/04 04:22:28;;;;;;;10.25;1.20;;;;;;;;;;5281672;28;20094;-84
2023/10/04 04:24:59;;;;;;;6.53;0.80;;;;;;;;;;5282485;28;20051;-82
2023/10/04 04:27:30;;;;;;;5.25;0.75;;;;;;;;;;5282398;28;20048;-83
2023/10/04 04:30:03;;;;;;;9.65;1.75;;;;;;;;;;5281444;28;20023;-82
2023/10/04 04:32:34;;;;;;;6.75;0.95;;;;;;;;;;5282057;28;20123;-83
2023/10/04 04:35:07;;;;;;;6.53;1.40;;;;;;;;;;5282224;28;20116;-83
2023/10/04 04:37:38;;;;;;;4.43;0.93;;;;;;;;;;5283932;28;20021;-83
2023/10/04 04:40:17;;;;;;;4.65;0.70;;;;;;;;;;5287725;28;20050;-83
2023/10/04 04:42:48;;;;;;;6.57;1.00;;;;;;;;;;5289039;28;20047;-86
2023/10/04 04:45:23;;;;;;;7.70;0.97;;;;;;;;;;5286679;28;20378;-83
2023/10/04 04:47:55;;;;;;;5.78;1.40;;;;;;;;;;5285744;28;20270;-82
2023/10/04 04:50:27;;;;;;;5.63;1.13;;;;;;;;;;5285094;28;20462;-81
2023/10/04 04:53:00;;;;;;;10.35;1.23;;;;;;;;;;5285102;28;20016;-84
2023/10/04 04:55:32;;;;;;;7.90;1.13;;;;;;;;;;5285129;28;20027;-83
2023/10/04 04:58:03;;;;;;;4.70;0.70;;;;;;;;;;5283250;28;20127;-82
2023/10/04 05:00:35;;;;;;;5.80;1.67;;;;;;;;;;5283157;28;20413;-82
2023/10/04 05:03:07;;;;;;;4.90;0.70;;;;;;;;;;5283903;28;20078;-83
2023/10/04 05:05:39;;;;;;;5.60;0.95;;;;;;;;;;5283536;28;20468;-82
2023/10/04 05:08:10;;;;;;;8.57;1.20;;;;;;;;;;5283994;28;20017;-83
2023/10/04 05:10:44;;;;;;;9.70;1.20;;;;;;;;;;5288352;28;20047;-83
2023/10/04 05:13:18;;;;;;;8.68;1.25;;;;;;;;;;5287829;28;20059;-83
2023/10/04 05:15:49;;;;;;;4.45;1.20;;;;;;;;;;5288092;28;20029;-83
2023/10/04 05:18:22;;;;;;;7.63;0.95;;;;;;;;;;5288636;28;20012;-84
2023/10/04 05:20:53;;;;;;;9.10;1.13;;;;;;;;;;5287923;28;20021;-82
2023/10/04 05:23:25;;;;;;;7.63;1.20;;;;;;;;;;5284807;28;20023;-83
2023/10/04 05:25:57;;;;;;;6.00;0.90;;;;;;;;;;5291482;28;20577;-83
2023/10/04 05:28:28;;;;;;;7.20;1.23;;;;;;;;;;5292902;28;20074;-83
2023/10/04 05:30:59;;;;;;;9.30;0.93;;;;;;;;;;5282635;28;20441;-83
2023/10/04 05:33:30;;;;;;;9.53;1.17;;;;;;;;;;5281966;28;20017;-83
2023/10/04 05:36:02;;;;;;;8.00;0.90;;;;;;;;;;5282727;28;20259;-83
2023/10/04 05:38:35;;;;;;;6.53;1.20;;;;;;;;;;5282103;28;20046;-82
2023/10/04 05:41:09;;;;;;;7.18;1.13;;;;;;;;;;5280948;28;20024;-82
2023/10/04 05:43:40;;;;;;;8.25;0.95;;;;;;;;;;5281326;28;20378;-82
2023/10/04 05:46:12;;;;;;;8.18;1.30;;;;;;;;;;5280776;28;20020;-83
2023/10/04 05:48:43;;;;;;;5.15;1.00;;;;;;;;;;5281426;28;20103;-83
2023/10/04 05:51:17;;;;;;;5.55;1.42;;;;;;;;;;5281241;28;20012;-83
2023/10/04 05:53:51;;;;;;;8.80;1.02;;;;;;;;;;5280389;28;20101;-83
2023/10/04 05:56:25;;;;;;;10.88;1.52;;;;;;;;;;5281590;28;20096;-83
2023/10/04 05:59:00;;;;;;;7.20;1.10;;;;;;;;;;5282731;28;20028;-84
2023/10/04 06:01:34;;;;;;;8.82;1.23;;;;;;;;;;5281109;28;20047;-84
2023/10/04 06:04:05;;;;;;;10.05;1.25;;;;;;;;;;5283071;28;20462;-83
2023/10/04 06:06:37;;;;;;;5.20;0.98;;;;;;;;;;5284719;28;20077;-82
2023/10/04 06:09:09;;;;;;;8.25;1.17;;;;;;;;;;5283860;28;20016;-82
2023/10/04 06:11:40;;;;;;;7.30;1.35;;;;;;;;;;5284587;28;20020;-83
2023/10/04 06:14:11;;;;;;;6.88;1.00;;;;;;;;;;5284233;28;20386;-84
2023/10/04 06:16:43;;;;;;;8.82;1.45;;;;;;;;;;5284375;28;20103;-84
2023/10/04 06:19:14;;;;;;;6.53;0.90;;;;;;;;;;5284731;28;20150;-83
2023/10/04 06:21:49;;;;;;;7.50;1.30;;;;;;;;;;5283717;28;20028;-84
2023/10/04 06:24:20;;;;;;;6.60;1.20;;;;;;;;;;5285124;28;20051;-83
2023/10/04 06:26:52;;;;;;;4.40;1.00;;;;;;;;;;5284192;28;20048;-82
2023/10/04 06:29:24;;;;;;;8.18;1.10;;;;;;;;;;5283573;28;20659;-82
2023/10/04 06:31:55;;;;;;;5.00;0.88;;;;;;;;;;5283916;28;20101;-82
2023/10/04 06:34:27;;;;;;;7.63;1.10;;;;;;;;;;5284436;28;20017;-84
2023/10/04 06:36:58;;;;;;;5.78;1.00;;;;;;;;;;5283330;28;20024;-82
2023/10/04 06:39:29;;;;;;;8.15;0.80;;;;;;;;;;5284512;28;20093;-82
2023/10/04 06:42:00;;;;;;;11.18;1.30;;;;;;;;;;5284532;28;20070;-81
2023/10/04 06:44:32;;;;;;;6.05;0.90;;;;;;;;;;5283765;28;20014;-83
2023/10/04 06:47:05;;;;;;;13.02;1.88;;;;;;;;;;5284007;28;20174;-84
2023/10/04 06:49:36;;;;;;;7.40;0.80;;;;;;;;;;5283289;28;20013;-82
2023/10/04 06:52:07;;;;;;;5.40;1.27;;;;;;;;;;5284234;28;20442;-84
2023/10/04 06:54:40;;;;;;;5.18;1.00;;;;;;;;;;5284050;28;20047;-80
2023/10/04 06:57:11;;;;;;;3.92;0.75;;;;;;;;;;5283252;28;20082;-83
2023/10/04 06:59:44;;;;;;;6.53;1.02;;;;;;;;;;5283696;28;20021;-81
2023/10/04 07:02:15;;;;;;;8.95;1.60;;;;;;;;;;5283851;28;20394;-83
2023/10/04 07:04:46;;;;;;;6.20;1.13;;;;;;;;;;5282322;28;20016;-83
2023/10/04 07:07:18;;;;;;;6.65;0.90;;;;;;;;;;5284199;28;20475;-82
2023/10/04 07:09:50;;;;;;;5.85;1.00;;;;;;;;;;5284333;28;20009;-82
2023/10/04 07:12:21;;;;;;;5.43;0.90;;;;;;;;;;5282997;28;20044;-81
2023/10/04 07:14:53;;;;;;;7.17;1.00;;;;;;;;;;5282822;28;20052;-81
2023/10/04 07:17:24;;;;;;;4.13;0.90;;;;;;;;;;5282948;28;20266;-81
2023/10/04 07:19:57;;;;;;;6.78;0.90;;;;;;;;;;5278274;28;20013;-80
2023/10/04 07:22:32;;;;;;;5.20;1.15;;;;;;;;;;5283059;28;20036;-81
2023/10/04 07:25:03;;;;;;;7.32;1.23;;;;;;;;;;5281976;28;20475;-80
2023/10/04 07:27:35;;;;;;;5.85;1.00;;;;;;;;;;5282821;28;20024;-82
2023/10/04 07:30:07;;;;;;;7.80;1.48;;;;;;;;;;5282964;28;20070;-82
2023/10/04 07:32:48;;;;;;;8.05;1.52;;;;;;;;;;5279996;28;20052;-78
2023/10/04 07:35:23;;;;;;;7.10;1.00;;;;;;;;;;5283297;28;20096;-83
2023/10/04 07:37:55;;;;;;;11.10;1.42;;;;;;;;;;5282925;28;20024;-81
2023/10/04 07:40:27;;;;;;;5.35;1.63;;;;;;;;;;5281976;28;20039;-84
2023/10/04 07:42:59;;;;;;;4.95;1.15;;;;;;;;;;5283268;28;20036;-84
2023/10/04 07:45:30;;;;;;;7.90;1.27;;;;;;;;;;5283783;28;20017;-80
2023/10/04 07:48:02;;;;;;;6.47;1.13;;;;;;;;;;5282120;28;20046;-84
2023/10/04 07:50:33;;;;;;;7.47;1.50;;;;;;;;;;5282526;28;20498;-84
2023/10/04 07:53:06;;;;;;;7.40;1.27;;;;;;;;;;5282001;28;20129;-82
2023/10/04 07:55:37;;;;;;;8.43;1.52;;;;;;;;;;5282708;28;20411;-82
2023/10/04 07:58:10;;;;;;;6.45;1.10;;;;;;;;;;5282534;28;20096;-82
2023/10/04 08:00:42;;;;;;;9.88;1.50;;;;;;;;;;5281591;28;20012;-82
2023/10/04 08:03:14;;;;;;;8.93;1.50;;;;;;;;;;5282256;28;20023;-83
2023/10/04 08:05:45;;;;;;;6.18;1.45;;;;;;;;;;5282174;28;20032;-83
2023/10/04 08:08:16;;;;;;;5.50;0.82;;;;;;;;;;5282068;28;20040;-82
2023/10/04 08:10:49;;;;;;;8.57;1.38;;;;;;;;;;5282027;28;20016;-82
2023/10/04 08:13:20;;;;;;;7.30;1.55;;;;;;;;;;5282344;28;20020;-82
2023/10/04 08:15:53;;;;;;;8.63;1.50;;;;;;;;;;5281153;28;20020;-82
2023/10/04 08:18:24;;;;;;;5.15;1.08;;;;;;;;;;5282257;28;20258;-83
2023/10/04 08:20:56;;;;;;;8.93;1.38;;;;;;;;;;5281173;28;20070;-81
2023/10/04 08:23:28;;;;;;;8.85;1.50;;;;;;;;;;5282185;28;20039;-81
2023/10/04 08:25:59;;;;;;;8.07;1.23;;;;;;;;;;5281775;28;20434;-81
2023/10/04 08:28:30;;;;;;;7.88;1.40;;;;;;;;;;5282814;28;20039;-79
2023/10/04 08:31:02;;;;;;;7.38;1.38;;;;;;;;;;5283157;28;20044;-79
2023/10/04 08:33:33;;;;;;;6.03;1.17;;;;;;;;;;5283265;28;20099;-81
2023/10/04 08:36:10;;;;;;;7.65;1.50;;;;;;;;;;5281933;28;20580;-81
2023/10/04 08:38:42;;;;;;;9.73;1.30;;;;;;;;;;5281858;28;20021;-80
2023/10/04 08:41:16;;;;;;;8.82;1.70;;;;;;;;;;5281813;28;20035;-80
2023/10/04 08:43:47;;;;;;;8.48;1.70;;;;;;;;;;5280701;28;20383;-79
2023/10/04 08:46:19;;;;;;;9.82;1.10;;;;;;;;;;5282073;28;20013;-78
2023/10/04 08:48:53;;;;;;;9.43;1.65;;;;;;;;;;5281276;28;20475;-80
2023/10/04 08:51:36;;;;;;;10.95;1.48;;;;;;;;;;5281448;28;20078;-81
2023/10/04 08:54:11;;;;;;;11.10;1.70;;;;;;;;;;5280428;28;20115;-80
2023/10/04 08:56:52;;;;;;;6.00;1.10;;;;;;;;;;5273315;28;20020;-80
2023/10/04 08:59:24;;;;;;;12.70;1.73;;;;;;;;;;5277053;28;20068;-79
2023/10/04 09:01:56;;;;;;;8.82;1.38;;;;;;;;;;5259749;28;20043;-80
2023/10/04 09:04:28;;;;;;;7.78;1.33;;;;;;;;;;5259184;28;20459;-80
2023/10/04 09:06:59;;;;;;;6.75;1.30;;;;;;;;;;5260115;28;20057;-81
2023/10/04 09:09:32;;;;;;;8.40;1.83;;;;;;;;;;5259238;28;20476;-81
2023/10/04 09:12:04;;;;;;;6.15;1.27;;;;;;;;;;5259349;28;20021;-78
2023/10/04 09:14:40;;;;;;;7.13;1.90;;;;;;;;;;5261088;28;20440;-79
2023/10/04 09:17:14;;;;;;;6.65;1.48;;;;;;;;;;5259559;28;20013;-80
2023/10/04 09:19:45;;;;;;;7.53;1.40;;;;;;;;;;5259630;28;20024;-81
2023/10/04 09:22:28;;;;;;;5.97;1.40;;;;;;;;;;5258993;28;20043;-81
2023/10/04 09:25:01;;;;;;;7.28;1.20;;;;;;;;;;5254881;28;20108;-78
2023/10/04 09:27:32;;;;;;;11.27;1.83;;;;;;;;;;5275109;28;20093;-78
2023/10/04 09:30:18;;;;;;;7.32;1.90;;;;;;;;;;5279907;28;20020;-78
2023/10/04 09:32:51;;;;;;;8.38;1.52;;;;;;;;;;5263366;28;20422;-78
2023/10/04 09:35:22;;;;;;;6.57;1.13;;;;;;;;;;5259820;28;20100;-78
2023/10/04 09:38:12;;;;;;;9.40;1.77;;;;;;;;;;5260313;28;20111;-79
2023/10/04 09:40:50;;;;;;;8.10;1.50;;;;;;;;;;5262864;28;21011;-78
2023/10/04 09:43:37;;;;;;;7.95;1.58;;;;;;;;;;5263453;28;20060;-78
2023/10/04 09:46:12;;;;;;;7.13;1.20;;;;;;;;;;5262469;28;20021;-78
2023/10/04 09:48:46;;;;;;;5.30;1.00;;;;;;;;;;5263112;28;20028;-78
2023/10/04 09:51:19;;;;;;;9.65;1.40;;;;;;;;;;5262765;28;20009;-79
2023/10/04 09:53:50;;;;;;;6.65;1.25;;;;;;;;;;5262187;28;20027;-82
2023/10/04 09:56:22;;;;;;;6.87;1.57;;;;;;;;;;5262703;28;20021;-80
2023/10/04 09:58:54;;;;;;;6.45;1.70;;;;;;;;;;5261895;28;20329;-80
2023/10/04 10:01:27;;;;;;;7.38;1.52;;;;;;;;;;5262909;28;20033;-79
2023/10/04 10:04:07;;;;;;;8.25;1.45;;;;;;;;;;5262815;28;20021;-78
2023/10/04 10:07:13;;;;;;;7.72;1.63;;;;;;;;;;5262325;28;20657;-80
2023/10/04 10:09:53;;;;;;;8.07;1.98;;;;;;;;;;5244288;28;20064;-79
2023/10/04 10:12:29;;;;;;;7.90;1.52;;;;;;;;;;5262382;28;20029;-78
2023/10/04 10:15:01;;;;;;;6.78;1.45;;;;;;;;;;5262023;28;20066;-82
2023/10/04 10:17:34;;;;;;;8.93;1.52;;;;;;;;;;5263178;28;20460;-82
2023/10/04 10:20:09;;;;;;;8.07;1.52;;;;;;;;;;5273554;28;20471;-77
2023/10/04 10:23:05;;;;;;;10.35;2.42;;;;;;;;;;5283140;28;20033;-81
2023/10/04 10:25:38;;;;;;;6.18;1.13;;;;;;;;;;5275116;28;20328;-79
2023/10/04 10:28:18;;;;;;;5.07;1.00;;;;;;;;;;5283899;28;20032;-78
2023/10/04 10:30:59;;;;;;;5.78;1.52;;;;;;;;;;5283558;28;20044;-76
2023/10/04 10:33:31;;;;;;;7.28;1.95;;;;;;;;;;5283936;28;20017;-76
2023/10/04 10:36:03;;;;;;;6.32;1.60;;;;;;;;;;5283522;28;20016;-81
2023/10/04 10:38:40;;;;;;;7.70;2.00;;;;;;;;;;5284102;28;20153;-77
2023/10/04 10:41:34;;;;;;;6.22;1.42;;;;;;;;;;5283377;28;20047;-77
2023/10/04 10:44:12;;;;;;;8.35;1.80;;;;;;;;;;5283537;28;20040;-78
2023/10/04 10:46:54;;;;;;;8.18;1.88;;;;;;;;;;5272348;28;20036;-78
2023/10/04 10:50:03;;;;;;;5.15;1.80;;;;;;;;;;5262067;28;20045;-79
2023/10/04 10:52:38;;;;;;;12.43;1.40;;;;;;;;;;5269170;28;20051;-78
2023/10/04 10:55:17;;;;;;;6.97;1.77;;;;;;;;;;5272707;28;20024;-77
2023/10/04 10:57:50;;;;;;;6.93;1.60;;;;;;;;;;5271577;28;20031;-80
2023/10/04 11:00:22;;;;;;;7.13;1.63;;;;;;;;;;5283768;28;20027;-78
2023/10/04 11:02:54;;;;;;;8.38;1.77;;;;;;;;;;5282139;28;20036;-79
2023/10/04 11:05:26;;;;;;;9.05;1.65;;;;;;;;;;5283626;28;20379;-81
2023/10/04 11:07:57;;;;;;;8.43;1.73;;;;;;;;;;5283100;28;20434;-77
2023/10/04 11:10:33;;;;;;;5.97;1.77;;;;;;;;;;5282314;28;20017;-77
2023/10/04 11:13:08;;;;;;;5.20;1.60;;;;;;;;;;5283312;28;20131;-79
2023/10/04 11:15:41;;;;;;;6.05;1.83;;;;;;;;;;5283095;28;20024;-80
2023/10/04 11:18:13;;;;;;;7.65;1.98;;;;;;;;;;5282082;28;20414;-78
2023/10/04 11:20:45;;;;;;;9.32;2.10;;;;;;;;;;5282177;28;20016;-79
2023/10/04 11:23:16;;;;;;;4.28;1.58;;;;;;;;;;5282918;28;20070;-79
2023/10/04 11:25:48;;;;;;;6.28;1.73;;;;;;;;;;5282810;28;20024;-80
2023/10/04 11:28:19;;;;;;;7.32;2.10;;;;;;;;;;5283689;28;20020;-77
2023/10/04 11:30:50;;;;;;;8.02;2.00;;;;;;;;;;5281570;28;20036;-80
2023/10/04 11:33:22;;;;;;;9.85;2.10;;;;;;;;;;5282993;28;20023;-80
2023/10/04 11:35:53;;;;;;;7.85;2.40;;;;;;;;;;5282940;28;20028;-78
2023/10/04 11:38:27;;;;;;;7.15;2.22;;;;;;;;;;5282272;28;20078;-79
2023/10/04 11:40:59;;;;;;;7.10;1.92;;;;;;;;;;5281483;28;20020;-80
2023/10/04 11:43:30;;;;;;;6.97;1.80;;;;;;;;;;5282451;28;20422;-80
2023/10/04 11:46:03;;;;;;;9.15;2.35;;;;;;;;;;5281424;28;20362;-80
2023/10/04 11:48:35;;;;;;;7.15;1.92;;;;;;;;;;5282607;28;20100;-79
2023/10/04 11:51:06;;;;;;;8.20;2.13;;;;;;;;;;5282579;28;20099;-77
2023/10/04 11:53:42;;;;;;;9.63;2.67;;;;;;;;;;5282275;28;20406;-77
2023/10/04 11:56:13;;;;;;;8.20;2.33;;;;;;;;;;5281768;28;20336;-79
2023/10/04 11:58:49;;;;;;;4.72;1.42;;;;;;;;;;5281111;28;20016;-77
2023/10/04 12:01:23;;;;;;;8.57;1.95;;;;;;;;;;5260738;28;20035;-73
2023/10/04 12:03:55;;;;;;;7.43;1.75;;;;;;;;;;5275430;28;20066;-78
2023/10/04 12:06:26;;;;;;;8.07;1.77;;;;;;;;;;5281882;28;20402;-80
2023/10/04 12:08:58;;;;;;;6.82;2.00;;;;;;;;;;5282535;28;20016;-79
2023/10/04 12:11:35;;;;;;;6.97;1.92;;;;;;;;;;5282712;28;20027;-82
2023/10/04 12:14:06;;;;;;;10.80;2.35;;;;;;;;;;5281669;28;20460;-78
2023/10/04 12:16:37;;;;;;;7.10;1.50;;;;;;;;;;5282021;28;20082;-79
2023/10/04 12:19:08;;;;;;;7.70;2.03;;;;;;;;;;5281763;28;20012;-78
2023/10/04 12:21:40;;;;;;;6.57;1.75;;;;;;;;;;5281313;28;20669;-81
2023/10/04 12:24:11;;;;;;;6.15;1.98;;;;;;;;;;5282194;28;20009;-79
2023/10/04 12:26:42;;;;;;;10.07;2.40;;;;;;;;;;5282510;28;20020;-80
2023/10/04 12:29:14;;;;;;;8.80;2.00;;;;;;;;;;5283122;28;20467;-81
2023/10/04 12:31:45;;;;;;;8.88;2.20;;;;;;;;;;5281671;28;20053;-79
2023/10/04 12:34:16;;;;;;;7.43;1.80;;;;;;;;;;5281621;28;20017;-82
2023/10/04 12:36:47;;;;;;;16.17;2.92;;;;;;;;;;5281693;28;20267;-80
2023/10/04 12:39:21;;;;;;;8.20;2.07;;;;;;;;;;5282658;28;20371;-82
2023/10/04 12:41:52;;;;;;;5.70;1.75;;;;;;;;;;5281166;28;20291;-82
2023/10/04 12:44:24;;;;;;;4.65;1.77;;;;;;;;;;5282725;28;20057;-83
2023/10/04 12:46:56;;;;;;;6.18;1.88;;;;;;;;;;5282589;28;20027;-82
2023/10/04 12:49:29;;;;;;;8.55;2.38;;;;;;;;;;5281304;28;20024;-82
2023/10/04 12:52:00;;;;;;;6.45;1.80;;;;;;;;;;5282347;28;20085;-81
2023/10/04 12:54:31;;;;;;;7.63;1.92;;;;;;;;;;5281871;28;20104;-81
2023/10/04 12:57:03;;;;;;;7.97;1.50;;;;;;;;;;5282102;28;20473;-82
2023/10/04 12:59:34;;;;;;;6.70;2.30;;;;;;;;;;5282591;28;20042;-81
2023/10/04 13:02:05;;;;;;;8.13;1.93;;;;;;;;;;5282821;28;20025;-81
2023/10/04 13:04:37;;;;;;;6.43;2.13;;;;;;;;;;5282576;28;20363;-83
2023/10/04 13:07:08;;;;;;;13.10;2.25;;;;;;;;;;5282871;28;20730;-82
2023/10/04 13:09:43;;;;;;;7.13;1.70;;;;;;;;;;5282047;28;20020;-82
2023/10/04 13:12:14;;;;;;;7.88;1.80;;;;;;;;;;5282882;28;20749;-81
2023/10/04 13:14:45;;;;;;;9.60;2.10;;;;;;;;;;5286500;28;20021;-82
2023/10/04 13:17:16;;;;;;;6.85;1.90;;;;;;;;;;5285514;28;20316;-80
2023/10/04 13:19:49;;;;;;;10.17;2.10;;;;;;;;;;5285289;28;20047;-81
2023/10/04 13:22:22;;;;;;;9.05;1.90;;;;;;;;;;5288301;28;20305;-79
2023/10/04 13:24:53;;;;;;;8.10;2.13;;;;;;;;;;5285857;28;20099;-81
2023/10/04 13:27:24;;;;;;;13.30;2.50;;;;;;;;;;5289315;28;20427;-80
2023/10/04 13:29:56;;;;;;;5.07;1.10;;;;;;;;;;5287650;28;20272;-80
2023/10/04 13:32:27;;;;;;;5.90;1.43;;;;;;;;;;5285452;28;20052;-81
2023/10/04 13:35:00;;;;;;;7.07;1.98;;;;;;;;;;5287434;28;20325;-80
2023/10/04 13:37:31;;;;;;;5.43;1.55;;;;;;;;;;5286501;28;20020;-79
2023/10/04 13:40:08;;;;;;;8.43;2.13;;;;;;;;;;5286119;28;20043;-79
2023/10/04 13:42:39;;;;;;;7.30;1.65;;;;;;;;;;5285068;28;20381;-78
2023/10/04 13:45:13;;;;;;;6.47;1.20;;;;;;;;;;5284580;28;20551;-78
2023/10/04 13:47:45;;;;;;;6.50;1.20;;;;;;;;;;5284984;28;20297;-79
2023/10/04 13:50:24;;;;;;;4.03;1.13;;;;;;;;;;5285732;28;20062;-78
2023/10/04 13:52:55;;;;;;;7.40;1.02;;;;;;;;;;5285282;28;20066;-79
2023/10/04 13:55:28;;;;;;;8.75;1.63;;;;;;;;;;5281723;28;20024;-79
2023/10/04 13:58:00;;;;;;;3.60;1.00;;;;;;;;;;5286983;28;20451;-79
2023/10/04 14:00:36;;;;;;;8.02;1.27;;;;;;;;;;5285962;28;20437;-79
2023/10/04 14:03:07;;;;;;;6.25;0.88;;;;;;;;;;5286015;28;20032;-79
2023/10/04 14:05:39;;;;;;;10.07;1.10;;;;;;;;;;5284794;28;20023;-79
2023/10/04 14:08:11;;;;;;;6.20;1.17;;;;;;;;;;5284094;28;20029;-79
2023/10/04 14:10:42;;;;;;;9.35;1.40;;;;;;;;;;5285035;28;20107;-79
2023/10/04 14:13:14;;;;;;;4.40;1.05;;;;;;;;;;5284020;28;20099;-80
2023/10/04 14:15:46;;;;;;;4.75;1.05;;;;;;;;;;5285088;28;20017;-79
2023/10/04 14:18:17;;;;;;;8.93;1.30;;;;;;;;;;5286438;28;20016;-79
2023/10/04 14:20:48;;;;;;;4.97;1.07;;;;;;;;;;5283578;28;20027;-79
2023/10/04 14:23:19;;;;;;;5.75;1.10;;;;;;;;;;5285737;28;20333;-78
2023/10/04 14:25:54;;;;;;;6.88;1.00;;;;;;;;;;5283851;28;20482;-78
2023/10/04 14:28:27;;;;;;;4.60;0.70;;;;;;;;;;5283958;28;20099;-79
2023/10/04 14:30:59;;;;;;;7.65;1.63;;;;;;;;;;5286075;28;20098;-79
2023/10/04 14:33:30;;;;;;;5.40;1.27;;;;;;;;;;5285591;28;20055;-79
2023/10/04 14:36:02;;;;;;;5.47;1.10;;;;;;;;;;5284068;28;20028;-79
2023/10/04 14:38:33;;;;;;;4.72;0.90;;;;;;;;;;5286116;28;20270;-80
2023/10/04 14:41:04;;;;;;;3.13;0.80;;;;;;;;;;5283531;28;20020;-78
2023/10/04 14:43:36;;;;;;;5.47;0.80;;;;;;;;;;5284312;28;20020;-79
2023/10/04 14:46:08;;;;;;;8.07;1.10;;;;;;;;;;5285465;28;20051;-79
2023/10/04 14:48:39;;;;;;;5.00;0.80;;;;;;;;;;5283436;28;20059;-79
2023/10/04 14:51:10;;;;;;;3.50;1.08;;;;;;;;;;5284147;28;20049;-79
2023/10/04 14:53:42;;;;;;;3.63;0.90;;;;;;;;;;5284702;28;20024;-79
2023/10/04 14:56:13;;;;;;;4.47;0.98;;;;;;;;;;5283567;28;20266;-80
2023/10/04 14:58:44;;;;;;;5.10;0.88;;;;;;;;;;5285638;28;20088;-79
2023/10/04 15:01:17;;;;;;;4.57;0.80;;;;;;;;;;5283931;28;20052;-79
2023/10/04 15:03:50;;;;;;;5.95;1.02;;;;;;;;;;5284563;28;20286;-79
2023/10/04 15:06:23;;;;;;;3.58;1.00;;;;;;;;;;5284132;28;20071;-78
2023/10/04 15:08:55;;;;;;;5.03;0.80;;;;;;;;;;5285542;28;20021;-80
2023/10/04 15:11:29;;;;;;;5.70;0.80;;;;;;;;;;5287630;28;20016;-80
2023/10/04 15:14:02;;;;;;;6.22;0.90;;;;;;;;;;5283703;28;20032;-79
2023/10/04 15:16:34;;;;;;;3.10;0.70;;;;;;;;;;5284277;28;20005;-80